Time;durP1;ratioP1;P1;durP2;ratioP2;P2;SDS_P1;SDS_P2;PMS_P1;PMS_P2;Temp;Humidity;BMP_temperature;BMP_pressure;BME280_temperature;BME280_humidity;BME280_pressure;Samples;Min_cycle;Max_cycle;Signal;HPM_P1;HPM_P2
2022/07/20 00:00:52;;;;;;;12.47;5.03;;;23.90;59.30;;;;;;4984490;28;20202;-70
2022/07/20 00:03:18;;;;;;;7.53;3.90;;;23.90;59.30;;;;;;4984781;28;20328;-70
2022/07/20 00:05:43;;;;;;;9.03;4.20;;;23.80;59.50;;;;;;4984962;28;20465;-69
2022/07/20 00:08:09;;;;;;;7.25;4.55;;;23.80;59.80;;;;;;4984266;28;20031;-70
2022/07/20 00:13:20;;;;;;;7.60;4.88;;;23.80;60.40;;;;;;4983971;28;20065;-70
2022/07/20 00:15:46;;;;;;;7.53;4.95;;;23.70;60.60;;;;;;4984798;28;20329;-70
2022/07/20 00:18:12;;;;;;;10.00;5.25;;;23.70;61.10;;;;;;4984163;28;20133;-70
2022/07/20 00:20:38;;;;;;;9.43;5.13;;;23.60;61.50;;;;;;4984635;28;20229;-70
2022/07/20 00:23:04;;;;;;;9.60;4.45;;;23.60;61.60;;;;;;4984527;28;20425;-70
2022/07/20 00:25:29;;;;;;;8.38;4.75;;;23.50;61.80;;;;;;4983452;28;20210;-70
2022/07/20 00:27:55;;;;;;;6.10;4.50;;;23.50;62.60;;;;;;4984811;28;20031;-70
2022/07/20 00:30:21;;;;;;;7.90;5.50;;;23.50;62.30;;;;;;4984522;28;20306;-71
2022/07/20 00:32:47;;;;;;;11.17;5.57;;;23.50;62.10;;;;;;4984367;28;20258;-70
2022/07/20 00:35:14;;;;;;;6.93;4.97;;;23.40;62.10;;;;;;4984566;28;20025;-70
2022/07/20 00:37:40;;;;;;;5.95;4.57;;;23.40;62.50;;;;;;4984477;28;20018;-70
2022/07/20 00:40:07;;;;;;;9.07;5.15;;;23.40;62.60;;;;;;4984106;28;20321;-70
2022/07/20 00:42:34;;;;;;;7.18;4.50;;;23.30;63.10;;;;;;4999422;28;20061;-70
2022/07/20 00:45:00;;;;;;;9.25;4.93;;;23.30;62.70;;;;;;4984136;28;20089;-70
2022/07/20 00:47:26;;;;;;;10.52;6.32;;;23.20;63.00;;;;;;4984252;28;20101;-70
2022/07/20 00:49:51;;;;;;;7.17;5.27;;;23.20;62.80;;;;;;4984174;28;20037;-70
2022/07/20 00:52:17;;;;;;;7.50;4.93;;;23.20;63.00;;;;;;4984193;28;20031;-70
2022/07/20 00:54:45;;;;;;;6.93;4.60;;;23.10;63.40;;;;;;4983166;28;20033;-70
2022/07/20 00:57:11;;;;;;;6.97;5.28;;;23.10;63.30;;;;;;4984114;28;20338;-70
2022/07/20 00:59:37;;;;;;;7.90;5.28;;;23.10;64.00;;;;;;4982955;28;20190;-70
2022/07/20 01:02:03;;;;;;;10.27;4.65;;;23.00;63.70;;;;;;4984055;28;20333;-70
2022/07/20 01:04:29;;;;;;;12.07;5.63;;;23.00;63.70;;;;;;4983626;28;20034;-70
2022/07/20 01:06:55;;;;;;;6.80;4.97;;;23.00;63.90;;;;;;4983978;28;20262;-69
2022/07/20 01:09:21;;;;;;;6.82;5.32;;;22.90;63.80;;;;;;4982970;28;20221;-70
2022/07/20 01:11:47;;;;;;;7.50;4.67;;;22.90;64.20;;;;;;4983726;28;20035;-69
2022/07/20 01:14:13;;;;;;;6.63;4.75;;;22.90;64.30;;;;;;4983553;28;20349;-70
2022/07/20 01:16:38;;;;;;;6.83;4.70;;;22.80;64.50;;;;;;4982706;28;20033;-70
2022/07/20 01:19:05;;;;;;;8.00;5.45;;;22.80;64.80;;;;;;4982183;28;20026;-70
2022/07/20 01:21:31;;;;;;;7.85;4.70;;;22.70;65.30;;;;;;4982549;28;20031;-70
2022/07/20 01:23:57;;;;;;;6.90;4.78;;;22.70;65.60;;;;;;4982200;28;20026;-70
2022/07/20 01:26:23;;;;;;;7.17;4.80;;;22.70;65.50;;;;;;4983682;28;20392;-70
2022/07/20 01:28:49;;;;;;;8.53;5.63;;;22.60;65.30;;;;;;4982428;28;20274;-70
2022/07/20 01:31:14;;;;;;;7.60;5.27;;;22.60;65.30;;;;;;4983621;28;20037;-70
2022/07/20 01:33:40;;;;;;;6.73;5.07;;;22.50;65.70;;;;;;4983256;28;20057;-70
2022/07/20 01:36:06;;;;;;;8.10;4.77;;;22.50;66.00;;;;;;4983616;28;20266;-70
2022/07/20 01:38:32;;;;;;;6.32;4.90;;;22.50;66.30;;;;;;4998312;28;20033;-70
2022/07/20 01:40:58;;;;;;;7.67;5.20;;;22.40;66.50;;;;;;4983403;28;20027;-70
2022/07/20 01:43:23;;;;;;;6.47;5.17;;;22.30;66.40;;;;;;4983319;28;20029;-69
2022/07/20 01:45:49;;;;;;;8.03;4.70;;;22.30;66.80;;;;;;4983569;28;20027;-70
2022/07/20 01:48:15;;;;;;;6.03;4.80;;;22.20;67.00;;;;;;4983475;28;20027;-70
2022/07/20 01:50:41;;;;;;;8.67;4.60;;;22.20;67.40;;;;;;4983342;28;20033;-70
2022/07/20 01:53:08;;;;;;;10.17;5.37;;;22.20;67.80;;;;;;4983252;28;20033;-69
2022/07/20 01:55:34;;;;;;;17.58;5.68;;;22.10;68.10;;;;;;4982077;28;20019;-69
2022/07/20 01:58:00;;;;;;;6.57;4.60;;;22.10;67.90;;;;;;4983556;28;20029;-70
2022/07/20 02:00:26;;;;;;;11.67;5.80;;;22.10;68.00;;;;;;4983021;28;20098;-69
2022/07/20 02:02:51;;;;;;;9.27;5.25;;;22.00;68.10;;;;;;4983137;28;20036;-70
2022/07/20 02:05:18;;;;;;;10.57;5.93;;;22.00;68.60;;;;;;4983419;28;20035;-69
2022/07/20 02:07:43;;;;;;;9.32;5.57;;;21.90;68.70;;;;;;4983359;28;20270;-70
2022/07/20 02:10:10;;;;;;;8.35;5.78;;;21.90;69.20;;;;;;4982904;28;20057;-70
2022/07/20 02:12:36;;;;;;;7.00;5.30;;;21.80;69.40;;;;;;4982086;28;20119;-69
2022/07/20 02:15:07;;;;;;;8.32;5.35;;;21.80;69.70;;;;;;4983095;28;20023;-69
2022/07/20 02:17:33;;;;;;;9.98;5.43;;;21.80;69.80;;;;;;4983330;28;20029;-70
2022/07/20 02:19:59;;;;;;;9.13;5.40;;;21.70;70.70;;;;;;4983182;28;20233;-69
2022/07/20 02:22:25;;;;;;;9.17;5.60;;;21.70;70.10;;;;;;4983205;28;20037;-69
2022/07/20 02:24:50;;;;;;;8.88;5.60;;;21.70;70.10;;;;;;4982592;28;20376;-69
2022/07/20 02:27:16;;;;;;;10.20;4.87;;;21.60;70.60;;;;;;4983121;28;20030;-70
2022/07/20 02:29:42;;;;;;;8.23;5.47;;;21.60;70.60;;;;;;4984132;28;20083;-69
2022/07/20 02:32:08;;;;;;;9.03;5.20;;;21.60;71.40;;;;;;4986849;28;20031;-70
2022/07/20 02:34:33;;;;;;;12.63;6.50;;;21.60;71.20;;;;;;4986569;28;20025;-69
2022/07/20 02:36:59;;;;;;;9.67;5.67;;;21.50;71.50;;;;;;4986846;28;20089;-70
2022/07/20 02:39:25;;;;;;;10.73;5.37;;;21.50;71.00;;;;;;4986423;28;20026;-69
2022/07/20 02:41:50;;;;;;;8.17;5.63;;;21.50;71.30;;;;;;4986629;28;20030;-70
2022/07/20 02:44:16;;;;;;;11.03;6.60;;;21.40;71.70;;;;;;4986369;28;20026;-70
2022/07/20 02:46:42;;;;;;;10.87;5.23;;;21.30;71.80;;;;;;4985391;28;20050;-70
2022/07/20 02:49:08;;;;;;;8.90;5.83;;;21.30;72.10;;;;;;4986651;28;20344;-70
2022/07/20 02:51:33;;;;;;;12.27;6.40;;;21.30;72.70;;;;;;4986352;28;20030;-69
2022/07/20 02:53:59;;;;;;;9.00;5.40;;;21.20;72.50;;;;;;4986117;28;20077;-69
2022/07/20 02:56:25;;;;;;;5.63;4.60;;;21.20;72.50;;;;;;4985914;28;20026;-70
2022/07/20 02:58:51;;;;;;;7.37;5.23;;;21.20;72.80;;;;;;4986516;28;20078;-69
2022/07/20 03:01:16;;;;;;;10.77;5.13;;;21.20;73.10;;;;;;4985139;28;20019;-70
2022/07/20 03:03:42;;;;;;;11.47;5.33;;;21.10;73.90;;;;;;4986177;28;20033;-69
2022/07/20 03:06:09;;;;;;;9.85;6.05;;;21.10;74.00;;;;;;4986157;28;20074;-70
2022/07/20 03:08:35;;;;;;;8.10;5.53;;;21.00;74.70;;;;;;4986133;28;20345;-70
2022/07/20 03:11:00;;;;;;;13.05;6.53;;;21.00;75.00;;;;;;5024535;23;20051;-68
2022/07/20 03:13:26;;;;;;;8.67;5.70;;;21.00;75.30;;;;;;4984596;28;20029;-68
2022/07/20 03:15:52;;;;;;;14.50;6.20;;;20.90;75.60;;;;;;4985046;28;20029;-67
2022/07/20 03:18:18;;;;;;;12.80;5.60;;;20.90;75.60;;;;;;4985028;28;20026;-70
2022/07/20 03:20:44;;;;;;;9.50;5.50;;;20.90;76.00;;;;;;4993357;28;20484;-67
2022/07/20 03:23:10;;;;;;;9.48;5.43;;;20.90;76.70;;;;;;5004104;28;20257;-67
2022/07/20 03:25:35;;;;;;;8.60;5.30;;;20.80;76.90;;;;;;5004083;28;20094;-66
2022/07/20 03:28:01;;;;;;;7.90;5.17;;;20.80;77.10;;;;;;5004310;28;20098;-68
2022/07/20 03:30:27;;;;;;;8.30;5.20;;;20.80;76.70;;;;;;5004068;28;20137;-68
2022/07/20 03:32:54;;;;;;;9.60;5.38;;;20.80;77.50;;;;;;5019022;28;20026;-68
2022/07/20 03:35:19;;;;;;;9.35;5.75;;;20.80;77.70;;;;;;5004067;28;20022;-68
2022/07/20 03:37:45;;;;;;;8.37;4.67;;;20.80;77.40;;;;;;5002828;28;20049;-68
2022/07/20 03:40:11;;;;;;;7.30;5.50;;;20.70;77.70;;;;;;5003936;28;20265;-68
2022/07/20 03:42:37;;;;;;;7.15;4.97;;;20.70;79.00;;;;;;5002984;28;20340;-68
2022/07/20 03:45:04;;;;;;;8.20;5.30;;;20.70;79.20;;;;;;5003763;28;20034;-68
2022/07/20 03:47:29;;;;;;;12.35;6.30;;;20.70;79.60;;;;;;5003912;28;20064;-68
2022/07/20 03:49:55;;;;;;;8.37;5.57;;;20.60;80.60;;;;;;5003570;28;20244;-68
2022/07/20 03:52:21;;;;;;;12.27;5.67;;;20.70;80.70;;;;;;5003654;28;20054;-68
2022/07/20 03:54:47;;;;;;;9.00;5.93;;;20.60;80.70;;;;;;5018407;28;20037;-67
2022/07/20 03:57:12;;;;;;;13.37;5.90;;;20.60;81.60;;;;;;5002831;28;20022;-67
2022/07/20 03:59:38;;;;;;;9.87;5.80;;;20.60;81.40;;;;;;5003684;28;20221;-67
2022/07/20 04:02:04;;;;;;;8.17;5.90;;;20.60;81.00;;;;;;5003620;28;20045;-68
2022/07/20 04:04:30;;;;;;;6.80;4.97;;;20.60;81.40;;;;;;5018414;28;20080;-68
2022/07/20 04:06:56;;;;;;;9.55;5.10;;;20.60;81.40;;;;;;5002457;28;20281;-67
2022/07/20 04:12:08;;;;;;;11.65;5.93;;;20.60;81.90;;;;;;5003284;28;20081;-68
2022/07/20 04:14:34;;;;;;;9.02;5.60;;;20.50;82.70;;;;;;5018266;28;20045;-68
2022/07/20 04:17:00;;;;;;;8.27;5.80;;;20.50;82.80;;;;;;5018376;28;20049;-68
2022/07/20 04:19:26;;;;;;;12.93;6.00;;;20.50;84.30;;;;;;5003260;28;20084;-68
2022/07/20 04:21:55;;;;;;;14.50;6.50;;;20.60;85.90;;;;;;5003214;28;20038;-67
2022/07/20 04:24:22;;;;;;;10.80;5.68;;;20.60;86.50;;;;;;5017828;28;20291;-68
2022/07/20 04:26:47;;;;;;;12.40;6.30;;;20.60;86.10;;;;;;5003173;28;20033;-67
2022/07/20 04:29:13;;;;;;;14.10;6.10;;;20.60;86.30;;;;;;5003119;28;20026;-67
2022/07/20 04:31:39;;;;;;;11.73;6.43;;;20.60;85.90;;;;;;5001931;28;20031;-66
2022/07/20 04:34:04;;;;;;;14.20;6.37;;;20.60;85.90;;;;;;4998400;28;20027;-67
2022/07/20 04:36:30;;;;;;;9.97;5.47;;;20.50;86.20;;;;;;4996895;28;20061;-68
2022/07/20 04:38:56;;;;;;;9.23;6.50;;;20.50;86.40;;;;;;5001544;28;20053;-67
2022/07/20 04:41:22;;;;;;;10.83;6.27;;;20.50;85.50;;;;;;5003232;28;20030;-68
2022/07/20 04:43:48;;;;;;;13.00;6.37;;;20.50;87.00;;;;;;5002571;28;20055;-68
2022/07/20 04:46:13;;;;;;;12.13;6.40;;;20.60;87.10;;;;;;5017945;28;20101;-67
2022/07/20 04:48:39;;;;;;;12.20;5.83;;;20.60;87.00;;;;;;5002761;28;20281;-67
2022/07/20 04:51:05;;;;;;;9.67;5.90;;;20.60;85.80;;;;;;5002615;28;20026;-67
2022/07/20 04:53:30;;;;;;;10.87;5.97;;;20.70;84.90;;;;;;5001918;28;20081;-69
2022/07/20 04:55:56;;;;;;;12.73;5.90;;;20.60;84.40;;;;;;5017707;28;20270;-68
2022/07/20 04:58:22;;;;;;;8.57;6.07;;;20.70;84.20;;;;;;5002479;28;20333;-67
2022/07/20 05:00:48;;;;;;;9.63;5.20;;;20.70;84.30;;;;;;4996250;28;20077;-68
2022/07/20 05:03:13;;;;;;;9.60;5.43;;;20.70;83.60;;;;;;4982656;28;20030;-68
2022/07/20 05:05:39;;;;;;;12.33;5.70;;;20.70;82.90;;;;;;4998270;28;20041;-68
2022/07/20 05:08:05;;;;;;;8.53;5.13;;;20.70;83.30;;;;;;5002103;28;20034;-68
2022/07/20 05:10:31;;;;;;;10.07;5.47;;;20.70;81.40;;;;;;5001867;28;20037;-68
2022/07/20 05:12:56;;;;;;;8.33;5.23;;;20.70;81.30;;;;;;5017056;28;20034;-68
2022/07/20 05:15:25;;;;;;;8.97;4.93;;;20.80;80.80;;;;;;5017410;28;20026;-68
2022/07/20 05:17:50;;;;;;;8.10;5.40;;;20.80;80.30;;;;;;5017315;28;20022;-69
2022/07/20 05:20:16;;;;;;;7.50;5.65;;;20.80;80.70;;;;;;5002011;28;20046;-67
2022/07/20 05:22:42;;;;;;;12.10;6.22;;;20.90;79.90;;;;;;4999380;28;20080;-68
2022/07/20 05:25:11;;;;;;;13.97;6.03;;;;;;;;;;5002042;28;20034;-68
2022/07/20 05:27:37;;;;;;;54.05;12.63;;;20.80;81.20;;;;;;5001056;28;20332;-69
2022/07/20 05:30:03;;;;;;;25.20;8.93;;;21.10;99.90;;;;;;5002083;28;20076;-68
2022/07/20 05:32:29;;;;;;;15.50;7.32;;;21.00;99.90;;;;;;5002070;28;20335;-69
2022/07/20 05:34:55;;;;;;;9.13;6.07;;;20.80;99.90;;;;;;5001010;28;20025;-73
2022/07/20 05:37:21;;;;;;;11.90;6.57;;;20.70;99.90;;;;;;5000855;28;20030;-73
2022/07/20 05:39:46;;;;;;;9.33;6.70;;;20.60;99.90;;;;;;5017089;28;20277;-70
2022/07/20 05:42:12;;;;;;;13.57;6.77;;;20.60;99.90;;;;;;5002005;28;20022;-71
2022/07/20 05:44:38;;;;;;;11.40;6.83;;;20.60;99.90;;;;;;5000501;28;20026;-70
2022/07/20 05:47:06;;;;;;;11.95;6.93;;;20.50;99.90;;;;;;5001828;28;20356;-70
2022/07/20 05:49:33;;;;;;;10.95;7.70;;;20.60;99.90;;;;;;5001869;28;20062;-69
2022/07/20 05:51:59;;;;;;;15.70;6.95;;;20.70;99.90;;;;;;5001728;28;20030;-70
2022/07/20 05:54:25;;;;;;;12.43;6.03;;;20.80;99.90;;;;;;5001264;28;20029;-70
2022/07/20 05:56:51;;;;;;;9.33;6.50;;;20.90;99.90;;;;;;5000543;28;20046;-70
2022/07/20 05:59:16;;;;;;;13.30;5.90;;;21.00;99.90;;;;;;5002072;28;20026;-70
2022/07/20 06:01:44;;;;;;;10.40;5.70;;;21.10;99.90;;;;;;5001519;28;20375;-70
2022/07/20 06:04:11;;;;;;;17.58;6.60;;;21.20;99.90;;;;;;5001546;28;20022;-70
2022/07/20 06:06:37;;;;;;;13.57;6.72;;;21.20;99.90;;;;;;5020937;28;20315;-70
2022/07/20 06:09:04;;;;;;;14.68;6.60;;;21.40;99.90;;;;;;5020437;28;20030;-70
2022/07/20 06:11:30;;;;;;;14.70;6.00;;;21.50;99.90;;;;;;5004998;28;20027;-70
2022/07/20 06:13:56;;;;;;;10.27;5.23;;;21.60;97.90;;;;;;5020437;28;20026;-71
2022/07/20 06:16:21;;;;;;;10.27;5.37;;;21.80;90.30;;;;;;5020691;28;20022;-72
2022/07/20 06:18:47;;;;;;;8.70;5.30;;;21.80;87.20;;;;;;5005532;28;20056;-70
2022/07/20 06:21:14;;;;;;;10.73;5.10;;;22.00;85.70;;;;;;5021692;28;20074;-70
2022/07/20 06:23:41;;;;;;;9.13;5.60;;;22.10;84.30;;;;;;5020186;28;20261;-70
2022/07/20 06:26:07;;;;;;;11.10;6.82;;;22.20;85.00;;;;;;5002779;28;20027;-74
2022/07/20 06:28:32;;;;;;;12.57;6.35;;;22.30;84.50;;;;;;5003832;28;20110;-73
2022/07/20 06:30:58;;;;;;;11.40;6.18;;;22.40;83.50;;;;;;5003730;28;20241;-73
2022/07/20 06:33:25;;;;;;;16.05;9.75;;;22.50;80.30;;;;;;5004802;28;20034;-73
2022/07/20 06:35:50;;;;;;;12.38;5.63;;;22.60;79.30;;;;;;5003849;28;20023;-73
2022/07/20 06:38:16;;;;;;;10.63;5.73;;;22.60;78.80;;;;;;5003894;28;20030;-73
2022/07/20 06:40:42;;;;;;;11.13;6.77;;;22.70;77.00;;;;;;5003402;28;20034;-73
2022/07/20 06:43:08;;;;;;;9.25;6.05;;;22.80;74.40;;;;;;5003231;28;20345;-74
2022/07/20 06:45:33;;;;;;;13.20;7.30;;;22.90;73.70;;;;;;5005160;28;20400;-74
2022/07/20 06:47:59;;;;;;;7.03;5.00;;;23.00;71.20;;;;;;5004872;28;20042;-75
2022/07/20 06:50:25;;;;;;;10.77;4.77;;;23.20;69.10;;;;;;5004564;28;20037;-74
2022/07/20 06:52:51;;;;;;;9.65;5.10;;;23.30;67.90;;;;;;5004576;28;20052;-73
2022/07/20 06:55:16;;;;;;;9.70;4.77;;;23.50;67.40;;;;;;5004396;28;20036;-73
2022/07/20 06:57:44;;;;;;;8.97;3.97;;;23.70;67.20;;;;;;5003624;28;20277;-73
2022/07/20 07:00:11;;;;;;;7.30;4.35;;;23.80;68.00;;;;;;5019658;28;20375;-73
2022/07/20 07:02:37;;;;;;;8.45;4.50;;;23.90;68.70;;;;;;5019598;28;20097;-73
2022/07/20 07:05:03;;;;;;;11.65;4.75;;;24.00;69.10;;;;;;5019732;28;20189;-74
2022/07/20 07:07:29;;;;;;;5.35;3.97;;;24.10;67.80;;;;;;5003300;28;20210;-74
2022/07/20 07:09:55;;;;;;;6.43;4.38;;;24.20;67.60;;;;;;5019539;28;20329;-74
2022/07/20 07:12:21;;;;;;;5.18;4.47;;;24.30;65.90;;;;;;5004133;28;20129;-73
2022/07/20 07:14:46;;;;;;;5.50;4.25;;;24.30;65.30;;;;;;5019558;28;20048;-74
2022/07/20 07:17:12;;;;;;;6.72;3.95;;;24.50;64.50;;;;;;4985771;28;20025;-74
2022/07/20 07:19:39;;;;;;;7.28;4.20;;;24.60;63.70;;;;;;5019723;28;20476;-74
2022/07/20 07:22:05;;;;;;;6.70;4.10;;;24.70;63.40;;;;;;5003220;28;20249;-74
2022/07/20 07:24:31;;;;;;;8.20;4.87;;;24.90;62.10;;;;;;5019336;28;20041;-74
2022/07/20 07:26:57;;;;;;;6.90;4.30;;;25.00;62.60;;;;;;5018147;28;20285;-74
2022/07/20 07:29:23;;;;;;;13.23;4.72;;;25.10;62.40;;;;;;5019403;28;20030;-74
2022/07/20 07:31:49;;;;;;;;;;;25.20;61.80;;;;;;5019793;28;20237;-74
2022/07/20 07:34:14;;;;;;;6.18;3.45;;;25.30;62.40;;;;;;5003911;28;19913;-74
2022/07/20 07:36:40;;;;;;;5.93;4.50;;;25.50;60.90;;;;;;5019332;28;20030;-74
2022/07/20 07:39:06;;;;;;;7.93;4.43;;;25.60;60.80;;;;;;4985905;28;20026;-74
2022/07/20 07:41:32;;;;;;;7.07;4.45;;;25.70;63.00;;;;;;5003782;28;20058;-74
2022/07/20 07:43:57;;;;;;;10.02;4.68;;;25.70;64.30;;;;;;5018866;28;20030;-74
2022/07/20 07:46:23;;;;;;;5.55;3.83;;;25.70;63.10;;;;;;5003830;28;20061;-74
2022/07/20 07:48:50;;;;;;;8.88;4.35;;;25.70;59.90;;;;;;5018067;28;20045;-74
2022/07/20 07:51:16;;;;;;;;;;;25.90;60.50;;;;;;5019207;28;20321;-74
2022/07/20 07:53:41;;;;;;;5.50;3.83;;;25.90;60.00;;;;;;5002189;28;19953;-74
2022/07/20 07:56:07;;;;;;;7.60;4.55;;;26.00;59.80;;;;;;5018533;28;20099;-74
2022/07/20 07:58:33;;;;;;;8.32;4.22;;;26.20;59.20;;;;;;5017880;28;20050;-75
2022/07/20 08:00:59;;;;;;;7.05;3.60;;;26.20;59.50;;;;;;5018104;28;20038;-75
2022/07/20 08:03:24;;;;;;;9.70;3.53;;;26.40;56.50;;;;;;5003607;28;20022;-75
2022/07/20 08:05:50;;;;;;;9.57;2.92;;;26.60;55.30;;;;;;5018712;28;20030;-74
2022/07/20 08:08:16;;;;;;;5.95;3.50;;;26.70;54.10;;;;;;5018870;28;20029;-73
2022/07/20 08:10:42;;;;;;;7.78;4.53;;;27.00;54.00;;;;;;5003030;28;20034;-73
2022/07/20 08:13:08;;;;;;;6.82;3.20;;;27.10;53.70;;;;;;5018190;28;20060;-73
2022/07/20 08:15:33;;;;;;;6.18;3.80;;;27.20;53.80;;;;;;5003519;28;20128;-73
2022/07/20 08:18:00;;;;;;;8.85;3.78;;;27.40;53.40;;;;;;5018573;28;20053;-73
2022/07/20 08:20:26;;;;;;;5.35;3.20;;;27.50;52.60;;;;;;5003401;28;20037;-73
2022/07/20 08:22:52;;;;;;;5.38;3.63;;;27.70;52.50;;;;;;4985835;28;20030;-73
2022/07/20 08:25:19;;;;;;;6.30;3.63;;;27.80;52.90;;;;;;5003277;28;20609;-73
2022/07/20 08:27:44;;;;;;;4.90;3.45;;;27.90;52.10;;;;;;5000535;28;20053;-74
2022/07/20 08:30:11;;;;;;;7.55;3.38;;;28.00;52.00;;;;;;5003081;28;20023;-73
2022/07/20 08:32:37;;;;;;;6.03;3.55;;;28.10;52.40;;;;;;5001892;28;20049;-73
2022/07/20 08:35:03;;;;;;;7.15;3.65;;;28.30;52.00;;;;;;5003076;28;20026;-73
2022/07/20 08:37:29;;;;;;;5.45;4.03;;;28.50;50.80;;;;;;5003019;28;20275;-73
2022/07/20 08:39:55;;;;;;;9.68;3.75;;;28.60;51.20;;;;;;5002977;28;20053;-73
2022/07/20 08:42:21;;;;;;;6.22;3.75;;;28.70;51.60;;;;;;5001574;28;20037;-73
2022/07/20 08:44:47;;;;;;;8.85;4.22;;;28.70;51.60;;;;;;5001545;28;20041;-73
2022/07/20 08:47:13;;;;;;;5.20;3.70;;;28.80;51.10;;;;;;5002893;28;20313;-73
2022/07/20 08:49:45;;;;;;;5.13;3.50;;;28.80;51.50;;;;;;5017755;28;20375;-73
2022/07/20 08:52:11;;;;;;;9.10;4.25;;;28.80;50.80;;;;;;5017147;28;20022;-74
2022/07/20 08:54:37;;;;;;;8.10;3.33;;;28.90;50.70;;;;;;5017825;28;20076;-73
2022/07/20 08:57:10;;;;;;;;;;;29.00;50.40;;;;;;5018117;28;20323;-72
2022/07/20 08:59:35;;;;;;;7.05;3.40;;;29.20;51.00;;;;;;4984600;28;19945;-73
2022/07/20 09:02:04;;;;;;;12.77;4.50;;;29.20;51.30;;;;;;5017898;28;20254;-73
2022/07/20 09:04:30;;;;;;;6.32;3.28;;;29.30;50.30;;;;;;5017328;28;20026;-73
2022/07/20 09:06:55;;;;;;;7.03;3.60;;;29.40;50.10;;;;;;5017598;28;20305;-73
2022/07/20 09:09:22;;;;;;;5.38;3.90;;;29.50;49.60;;;;;;5017532;28;20049;-73
2022/07/20 09:11:49;;;;;;;6.82;3.67;;;29.60;49.10;;;;;;5022042;23;20054;-76
2022/07/20 09:14:40;;;;;;;;;;;29.60;48.70;;;;;;4996425;28;20041;-76
2022/07/20 09:17:23;;;;;;;11.50;3.20;;;29.80;47.60;;;;;;4968792;28;19910;-77
2022/07/20 09:20:00;;;;;;;7.22;3.45;;;29.90;47.60;;;;;;4982857;28;20015;-76
2022/07/20 09:22:31;;;;;;;7.38;3.58;;;30.00;47.20;;;;;;4982693;28;20073;-76
2022/07/20 09:25:11;;;;;;;4.95;3.22;;;30.20;47.50;;;;;;4966617;28;20454;-76
2022/07/20 09:27:37;;;;;;;5.38;3.63;;;30.30;46.90;;;;;;4983958;28;20247;-76
2022/07/20 09:30:10;;;;;;;7.07;3.72;;;30.40;46.60;;;;;;4982492;28;20042;-76
2022/07/20 09:33:00;;;;;;;5.70;3.50;;;30.40;47.00;;;;;;4972145;28;20237;-76
2022/07/20 09:35:31;;;;;;;5.70;3.67;;;30.60;46.50;;;;;;4966599;28;20038;-77
2022/07/20 09:37:59;;;;;;;8.80;3.67;;;30.70;46.00;;;;;;4969829;28;20030;-76
2022/07/20 09:40:25;;;;;;;6.43;3.33;;;30.80;45.90;;;;;;5001307;28;20332;-77
2022/07/20 09:42:51;;;;;;;5.38;3.45;;;30.90;45.90;;;;;;5001680;28;20034;-76
2022/07/20 09:45:28;;;;;;;5.50;3.53;;;30.90;45.50;;;;;;5002118;28;20029;-76
2022/07/20 09:48:08;;;;;;;6.60;3.50;;;30.90;45.50;;;;;;4985707;28;20146;-77
2022/07/20 09:50:39;;;;;;;6.38;3.53;;;31.00;45.30;;;;;;5001866;28;20030;-77
2022/07/20 09:53:06;;;;;;;6.18;3.85;;;31.10;45.60;;;;;;5001525;28;20081;-77
2022/07/20 09:55:33;;;;;;;6.10;3.60;;;31.20;45.90;;;;;;5002063;28;20022;-77
2022/07/20 09:57:59;;;;;;;5.43;3.42;;;31.30;45.70;;;;;;5000949;28;20327;-77
2022/07/20 10:00:24;;;;;;;5.70;3.53;;;31.30;45.50;;;;;;5002898;28;20093;-77
2022/07/20 10:02:53;;;;;;;4.40;3.15;;;31.30;45.10;;;;;;4985731;28;20084;-77
2022/07/20 10:05:23;;;;;;;4.45;3.20;;;31.30;44.90;;;;;;5002007;28;20033;-77
2022/07/20 10:07:49;;;;;;;5.13;3.55;;;31.20;45.20;;;;;;5001722;28;20038;-77
2022/07/20 10:10:15;;;;;;;8.45;3.50;;;31.20;44.80;;;;;;5001737;28;20053;-77
2022/07/20 10:12:41;;;;;;;8.43;5.43;;;31.20;44.70;;;;;;4984575;28;20046;-77
2022/07/20 10:15:18;;;;;;;7.40;4.85;;;31.30;44.90;;;;;;5001735;28;20121;-76
2022/07/20 10:17:44;;;;;;;4.97;3.65;;;31.40;45.10;;;;;;5001796;28;20029;-74
2022/07/20 10:20:35;;;;;;;8.05;4.10;;;31.60;44.60;;;;;;5001556;28;20027;-76
2022/07/20 10:23:16;;;;;;;6.28;3.35;;;31.70;45.00;;;;;;4979780;28;20383;-76
2022/07/20 10:25:48;;;;;;;6.80;3.45;;;31.70;44.60;;;;;;5002977;28;20229;-77
2022/07/20 10:28:27;;;;;;;4.90;3.25;;;31.80;44.60;;;;;;5001693;28;20129;-77
2022/07/20 10:31:05;;;;;;;7.55;3.72;;;31.80;44.80;;;;;;5002947;28;20026;-77
2022/07/20 10:33:33;;;;;;;6.20;3.60;;;31.80;44.90;;;;;;4985626;28;20038;-75
2022/07/20 10:39:39;;;;;;;5.95;3.28;;;31.90;43.70;;;;;;4989363;28;20041;-76
2022/07/20 10:42:32;;;;;;;6.45;3.92;;;32.10;44.30;;;;;;5001231;28;20034;-76
2022/07/20 10:45:17;;;;;;;6.38;4.05;;;32.20;43.90;;;;;;5001466;28;20085;-76
2022/07/20 10:48:14;;;;;;;7.32;3.58;;;32.20;44.40;;;;;;5002649;28;20105;-76
2022/07/20 10:50:45;;;;;;;6.55;4.35;;;32.40;43.60;;;;;;5002943;28;20026;-77
2022/07/20 10:53:10;;;;;;;5.57;3.38;;;32.50;43.90;;;;;;5004936;28;20097;-76
2022/07/20 10:55:36;;;;;;;4.47;3.20;;;32.60;42.40;;;;;;5005905;28;20068;-76
2022/07/20 10:58:20;;;;;;;7.07;3.53;;;32.70;42.50;;;;;;5005661;28;20049;-75
2022/07/20 11:00:53;;;;;;;6.18;3.53;;;32.80;43.00;;;;;;5003467;28;20114;-74
2022/07/20 11:03:34;;;;;;;11.48;4.20;;;32.50;44.50;;;;;;5004527;28;20048;-76
2022/07/20 11:06:23;;;;;;;5.95;4.13;;;32.10;44.90;;;;;;5005005;28;20049;-76
2022/07/20 11:08:53;;;;;;;11.25;5.40;;;32.00;46.40;;;;;;4988482;28;20022;-76
2022/07/20 11:11:24;;;;;;;10.40;3.90;;;31.90;45.10;;;;;;4972430;28;20329;-76
2022/07/20 11:13:53;;;;;;;7.20;3.78;;;32.00;44.10;;;;;;4988433;28;20034;-76
2022/07/20 11:16:25;;;;;;;9.15;4.53;;;32.20;44.20;;;;;;4988022;28;20256;-77
2022/07/20 11:18:52;;;;;;;7.97;3.33;;;32.40;43.30;;;;;;4988459;28;20309;-76
2022/07/20 11:21:18;;;;;;;;;;;32.80;43.10;;;;;;5004868;28;20026;-77
2022/07/20 11:23:48;;;;;;;5.25;3.72;;;33.00;43.40;;;;;;4987775;28;20224;-76
2022/07/20 11:26:20;;;;;;;6.32;3.85;;;33.20;43.50;;;;;;5004424;28;20343;-76
2022/07/20 11:28:52;;;;;;;8.63;4.55;;;33.40;42.50;;;;;;5004447;28;20027;-74
2022/07/20 11:31:23;;;;;;;5.20;3.92;;;33.60;42.40;;;;;;5003972;28;20045;-73
2022/07/20 11:33:50;;;;;;;7.65;3.90;;;33.80;41.90;;;;;;4988133;28;20073;-73
2022/07/20 11:36:26;;;;;;;4.43;4.03;;;33.80;41.70;;;;;;5004126;28;20025;-74
2022/07/20 11:39:04;;;;;;;5.82;3.60;;;33.90;40.70;;;;;;5004107;28;20217;-75
2022/07/20 11:41:37;;;;;;;6.25;3.53;;;34.10;40.70;;;;;;4995209;28;20133;-74
2022/07/20 11:44:05;;;;;;;6.97;4.63;;;34.30;40.90;;;;;;4988699;28;20074;-75
2022/07/20 11:46:42;;;;;;;7.65;4.13;;;34.40;41.10;;;;;;4992774;28;20041;-75
2022/07/20 11:49:09;;;;;;;;;;;34.60;40.10;;;;;;4986418;28;20100;-74
2022/07/20 11:51:38;;;;;;;;;;;34.70;39.90;;;;;;4993940;28;19906;-74
2022/07/20 11:54:07;;;;;;;6.43;3.80;;;34.90;39.90;;;;;;4993470;28;19909;-74
2022/07/20 11:56:34;;;;;;;8.23;4.30;;;34.90;40.90;;;;;;4984239;28;20043;-74
2022/07/20 11:59:00;;;;;;;4.65;3.90;;;35.10;39.90;;;;;;4986433;28;20187;-74
2022/07/20 12:01:30;;;;;;;10.00;6.80;;;35.10;41.10;;;;;;4986936;28;20026;-75
2022/07/20 12:03:59;;;;;;;8.30;5.22;;;35.20;40.20;;;;;;4986341;28;20030;-75
2022/07/20 12:06:27;;;;;;;7.18;4.65;;;35.50;40.60;;;;;;5003610;28;20404;-74
2022/07/20 12:09:08;;;;;;;8.75;3.90;;;35.60;40.30;;;;;;5003837;28;20026;-75
2022/07/20 12:11:53;;;;;;;6.28;3.75;;;35.80;38.10;;;;;;5004516;28;20031;-75
2022/07/20 12:14:54;;;;;;;8.32;3.88;;;35.80;39.10;;;;;;5004671;28;20085;-75
2022/07/20 12:17:25;;;;;;;7.75;3.90;;;35.90;37.90;;;;;;4950942;28;20023;-74
2022/07/20 12:19:53;;;;;;;7.28;3.75;;;35.90;37.30;;;;;;4984697;28;20030;-74
2022/07/20 12:22:27;;;;;;;7.57;4.13;;;36.00;36.90;;;;;;5003338;28;20329;-74
2022/07/20 12:25:03;;;;;;;7.80;3.88;;;36.10;38.50;;;;;;5003148;28;20038;-74
2022/07/20 12:27:31;;;;;;;10.38;3.35;;;36.30;37.20;;;;;;5004393;28;20349;-75
2022/07/20 12:29:57;;;;;;;9.27;4.18;;;36.50;37.30;;;;;;5003041;28;20213;-75
2022/07/20 12:32:34;;;;;;;4.95;3.45;;;36.60;39.50;;;;;;5004124;28;20048;-75
2022/07/20 12:35:04;;;;;;;6.05;3.78;;;36.80;37.10;;;;;;5002921;28;20022;-75
2022/07/20 12:37:53;;;;;;;7.88;4.70;;;36.90;36.20;;;;;;5003046;28;20062;-75
2022/07/20 12:40:37;;;;;;;5.18;4.15;;;37.10;36.00;;;;;;5003082;28;20014;-75
2022/07/20 12:43:05;;;;;;;6.93;4.43;;;37.10;35.00;;;;;;5003729;28;20195;-75
2022/07/20 12:45:31;;;;;;;5.55;3.80;;;37.30;36.70;;;;;;5002671;28;20207;-75
2022/07/20 12:47:57;;;;;;;6.97;4.20;;;37.40;36.20;;;;;;5002767;28;20217;-75
2022/07/20 12:50:23;;;;;;;7.78;4.95;;;37.70;35.90;;;;;;4986533;28;20041;-75
2022/07/20 12:52:48;;;;;;;6.95;5.55;;;37.80;35.60;;;;;;4986118;28;20037;-75
2022/07/20 12:55:14;;;;;;;6.70;4.43;;;37.90;36.00;;;;;;5003816;28;20221;-74
2022/07/20 12:57:40;;;;;;;8.13;4.13;;;38.00;36.50;;;;;;5002744;28;20018;-74